createdAt,value
2023-04-06T00:00:27.568Z,99897.00
2023-04-06T00:02:57.329Z,99891.91
2023-04-06T00:05:31.674Z,99890.09
2023-04-06T00:08:02.139Z,99888.38
2023-04-06T00:10:31.858Z,99890.44
2023-04-06T00:13:02.204Z,99895.59
2023-04-06T00:15:32.005Z,99885.78
2023-04-06T00:18:01.691Z,99886.78
2023-04-06T00:20:34.060Z,99891.22
2023-04-06T00:23:03.739Z,99892.22
2023-04-06T00:25:33.399Z,99880.41
2023-04-06T00:28:03.100Z,99887.00
2023-04-06T00:30:32.808Z,99885.75
2023-04-06T00:33:02.572Z,99884.06
2023-04-06T00:35:34.962Z,99872.16
2023-04-06T00:38:04.694Z,99875.91
2023-04-06T00:40:35.967Z,99880.59
2023-04-06T00:43:05.941Z,99877.25
2023-04-06T00:45:36.330Z,99863.22
2023-04-06T00:48:06.427Z,99864.06
2023-04-06T00:50:39.073Z,99865.50
2023-04-06T00:53:08.745Z,99856.16
2023-04-06T00:55:38.402Z,99855.03
2023-04-06T00:58:09.411Z,99859.75
2023-04-06T01:00:48.177Z,99847.69
2023-04-06T01:03:21.314Z,99860.78
2023-04-06T01:05:59.328Z,99850.59
2023-04-06T01:08:34.901Z,99850.78
2023-04-06T01:11:18.434Z,99849.13
2023-04-06T01:13:50.200Z,99844.00
2023-04-06T01:16:28.567Z,99853.81
2023-04-06T01:19:19.372Z,99844.38
2023-04-06T01:21:55.120Z,99844.97
2023-04-06T01:24:47.840Z,99841.06
2023-04-06T01:27:49.625Z,99844.31
2023-04-06T01:30:24.819Z,99842.72
2023-04-06T01:32:57.914Z,99840.13
2023-04-06T01:35:50.206Z,99840.16
2023-04-06T01:38:22.915Z,99843.25
2023-04-06T01:40:55.836Z,99843.41
2023-04-06T01:43:27.643Z,99850.56
2023-04-06T01:46:07.802Z,99840.34
2023-04-06T01:48:40.251Z,99849.66
2023-04-06T01:51:22.304Z,99842.78
2023-04-06T01:53:57.579Z,99840.63
2023-04-06T01:56:38.572Z,99833.38
2023-04-06T01:59:22.055Z,99839.09
2023-04-06T02:01:51.963Z,99845.00
2023-04-06T02:04:22.484Z,99841.69
2023-04-06T02:07:00.111Z,99841.47
2023-04-06T02:09:32.372Z,99842.31
2023-04-06T02:12:05.464Z,99839.81
2023-04-06T02:14:37.024Z,99841.16
2023-04-06T02:17:07.437Z,99844.47
2023-04-06T02:19:37.085Z,99840.28
2023-04-06T02:22:06.989Z,99842.44
2023-04-06T02:24:36.764Z,99837.22
2023-04-06T02:27:09.181Z,99846.06
2023-04-06T02:29:38.819Z,99840.69
2023-04-06T02:32:09.297Z,99829.88
2023-04-06T02:34:39.010Z,99832.78
2023-04-06T02:37:09.100Z,99835.63
2023-04-06T02:39:39.621Z,99833.56
2023-04-06T02:42:16.367Z,99826.41
2023-04-06T02:44:47.548Z,99823.03
2023-04-06T02:47:17.536Z,99825.44
2023-04-06T02:49:51.105Z,99831.09
2023-04-06T02:52:21.670Z,99816.03
2023-04-06T02:54:52.265Z,99830.72
2023-04-06T02:57:30.761Z,99822.06
2023-04-06T03:00:00.621Z,99820.34
2023-04-06T03:02:38.249Z,99824.25
2023-04-06T03:05:12.583Z,99829.31
2023-04-06T03:07:45.809Z,99827.69
2023-04-06T03:10:22.613Z,99829.38
2023-04-06T03:12:55.491Z,99826.81
2023-04-06T03:15:27.851Z,99827.19
2023-04-06T03:18:08.290Z,99823.84
2023-04-06T03:20:43.420Z,99824.59
2023-04-06T03:23:13.741Z,99825.44
2023-04-06T03:25:45.581Z,99832.09
2023-04-06T03:28:21.742Z,99832.00
2023-04-06T03:31:00.892Z,99826.81
2023-04-06T03:33:49.505Z,99826.19
2023-04-06T03:36:32.988Z,99830.25
2023-04-06T03:39:03.499Z,99831.19
2023-04-06T03:41:36.361Z,99833.16
2023-04-06T03:44:16.136Z,99828.78
2023-04-06T03:46:47.508Z,99828.41
2023-04-06T03:49:17.521Z,99836.78
2023-04-06T03:51:51.094Z,99828.75
2023-04-06T03:54:20.759Z,99839.66
2023-04-06T03:56:50.497Z,99839.38
2023-04-06T03:59:22.842Z,99829.78
2023-04-06T04:01:56.529Z,99839.56
2023-04-06T04:04:27.006Z,99833.97
2023-04-06T04:06:56.724Z,99829.59
2023-04-06T04:09:29.180Z,99843.72
2023-04-06T04:11:59.407Z,99835.59
2023-04-06T04:14:32.128Z,99839.09
2023-04-06T04:17:01.806Z,99841.31
2023-04-06T04:19:31.452Z,99839.47
2023-04-06T04:22:01.200Z,99849.53
2023-04-06T04:24:36.607Z,99841.91
2023-04-06T04:27:06.720Z,99844.25
2023-04-06T04:29:39.937Z,99839.06
2023-04-06T04:32:12.575Z,99841.81
2023-04-06T04:34:43.536Z,99848.22
2023-04-06T04:37:20.733Z,99846.47
2023-04-06T04:39:57.395Z,99839.06
2023-04-06T04:42:27.185Z,99840.69
2023-04-06T04:45:02.720Z,99841.22
2023-04-06T04:47:39.773Z,99836.47
2023-04-06T04:50:11.418Z,99836.97
2023-04-06T04:52:44.386Z,99850.41
2023-04-06T04:55:28.897Z,99844.00
2023-04-06T04:58:03.608Z,99844.06
2023-04-06T05:00:50.839Z,99848.47
2023-04-06T05:03:25.888Z,99845.66
2023-04-06T05:06:17.302Z,99837.19
2023-04-06T05:08:47.560Z,99839.34
2023-04-06T05:11:17.637Z,99839.34
2023-04-06T05:13:52.321Z,99829.75
2023-04-06T05:16:28.945Z,99829.56
2023-04-06T05:19:02.304Z,99835.91
2023-04-06T05:21:40.655Z,99832.38
2023-04-06T05:24:11.469Z,99837.28
2023-04-06T05:26:42.050Z,99837.63
2023-04-06T05:29:21.270Z,99842.28
2023-04-06T05:31:54.722Z,99839.41
2023-04-06T05:34:24.647Z,99837.56
2023-04-06T05:36:54.831Z,99845.16
2023-04-06T05:39:27.530Z,99843.22
2023-04-06T05:41:57.784Z,99840.03
2023-04-06T05:44:37.294Z,99852.19
2023-04-06T05:47:16.803Z,99848.59
2023-04-06T05:49:49.238Z,99852.44
2023-04-06T05:52:27.000Z,99845.22
2023-04-06T05:54:57.718Z,99853.53
2023-04-06T05:57:28.754Z,99854.63
2023-04-06T05:59:59.097Z,99853.00
2023-04-06T06:02:44.830Z,99851.38
2023-04-06T06:05:20.928Z,99840.94
2023-04-06T06:07:51.764Z,99852.53
2023-04-06T06:10:21.591Z,99845.50
2023-04-06T06:12:51.307Z,99850.38
2023-04-06T06:15:21.830Z,99846.22
2023-04-06T06:17:54.591Z,99842.59
2023-04-06T06:20:24.307Z,99851.56
2023-04-06T06:22:54.083Z,99847.50
2023-04-06T06:25:25.943Z,99848.25
2023-04-06T06:27:56.033Z,99848.78
2023-04-06T06:30:25.781Z,99843.53
2023-04-06T06:32:58.165Z,99846.19
2023-04-06T06:35:28.664Z,99845.13
2023-04-06T06:37:58.612Z,99835.97
2023-04-06T06:40:30.528Z,99840.56
2023-04-06T06:43:00.405Z,99850.97
2023-04-06T06:45:37.597Z,99840.78
2023-04-06T06:48:10.082Z,99840.53
2023-04-06T06:50:40.986Z,99832.56
2023-04-06T06:53:10.718Z,99845.09
2023-04-06T06:55:40.406Z,99845.97
2023-04-06T06:58:10.363Z,99835.47
2023-04-06T07:00:40.052Z,99840.00
2023-04-06T07:03:13.230Z,99844.88
2023-04-06T07:05:53.995Z,99835.34
2023-04-06T07:08:24.927Z,99832.81
2023-04-06T07:10:57.487Z,99834.78
2023-04-06T07:13:28.745Z,99832.38
2023-04-06T07:16:01.181Z,99834.44
2023-04-06T07:18:36.251Z,99829.78
2023-04-06T07:21:08.626Z,99824.75
2023-04-06T07:23:40.874Z,99837.50
2023-04-06T07:26:10.917Z,99825.78
2023-04-06T07:28:40.972Z,99823.91
2023-04-06T07:31:11.268Z,99827.91
2023-04-06T07:33:43.838Z,99834.75
2023-04-06T07:36:13.859Z,99835.66
2023-04-06T07:38:43.622Z,99832.03
2023-04-06T07:41:13.374Z,99826.94
2023-04-06T07:43:43.472Z,99830.31
2023-04-06T07:46:13.374Z,99826.97
2023-04-06T07:48:46.068Z,99826.53
2023-04-06T07:51:16.128Z,99828.06
2023-04-06T07:53:48.187Z,99813.03
2023-04-06T07:56:18.158Z,99814.03
2023-04-06T07:58:48.214Z,99826.53
2023-04-06T08:01:17.892Z,99808.88
2023-04-06T08:03:50.286Z,99818.81
2023-04-06T08:06:20.309Z,99818.72
2023-04-06T08:08:49.985Z,99816.03
2023-04-06T08:11:19.693Z,99814.03
2023-04-06T08:13:49.559Z,99815.06
2023-04-06T08:16:19.314Z,99809.31
2023-04-06T08:18:51.643Z,99823.81
2023-04-06T08:21:21.612Z,99824.47
2023-04-06T08:23:51.497Z,99818.75
2023-04-06T08:26:21.178Z,99819.03
2023-04-06T08:28:51.023Z,99822.47
2023-04-06T08:31:20.748Z,99822.38
2023-04-06T08:33:52.988Z,99825.91
2023-04-06T08:36:24.033Z,99823.53
2023-04-06T08:38:55.019Z,99830.91
2023-04-06T08:41:24.834Z,99825.66
2023-04-06T08:44:01.036Z,99823.97
2023-04-06T08:46:32.912Z,99816.38
2023-04-06T08:49:07.967Z,99815.19
2023-04-06T08:51:41.795Z,99827.72
2023-04-06T08:54:11.578Z,99812.78
2023-04-06T08:56:43.128Z,99812.44
2023-04-06T08:59:13.679Z,99808.13
2023-04-06T09:01:47.091Z,99812.47
2023-04-06T09:04:20.218Z,99810.63
2023-04-06T09:06:51.104Z,99815.00
2023-04-06T09:09:24.206Z,99808.88
2023-04-06T09:11:56.220Z,99800.47
2023-04-06T09:14:38.868Z,99804.81
2023-04-06T09:17:09.149Z,99798.16
2023-04-06T09:19:51.356Z,99806.28
2023-04-06T09:22:21.969Z,99803.00
2023-04-06T09:24:53.686Z,99799.97
2023-04-06T09:27:34.144Z,99804.59
2023-04-06T09:30:09.424Z,99792.66
2023-04-06T09:32:49.466Z,99796.47
2023-04-06T09:35:23.670Z,99788.53
2023-04-06T09:37:56.500Z,99801.91
2023-04-06T09:40:26.650Z,99800.22
2023-04-06T09:42:58.738Z,99791.78
2023-04-06T09:45:29.467Z,99791.66
2023-04-06T09:47:59.932Z,99796.81
2023-04-06T09:50:34.658Z,99803.47
2023-04-06T09:53:06.127Z,99798.81
2023-04-06T09:55:41.440Z,99799.63
2023-04-06T09:58:14.001Z,99787.84
2023-04-06T10:00:48.339Z,99788.22
2023-04-06T10:03:25.385Z,99792.28
2023-04-06T10:05:59.873Z,99795.09
2023-04-06T10:08:33.176Z,99779.66
2023-04-06T10:11:04.340Z,99783.22
2023-04-06T10:13:33.980Z,99774.97
2023-04-06T10:16:04.245Z,99776.41
2023-04-06T10:18:34.337Z,99780.84
2023-04-06T10:21:11.406Z,99770.88
2023-04-06T10:23:45.785Z,99778.63
2023-04-06T10:26:18.408Z,99777.72
2023-04-06T10:28:49.882Z,99776.81
2023-04-06T10:31:28.578Z,99773.97
2023-04-06T10:33:59.462Z,99772.97
2023-04-06T10:36:36.184Z,99778.25
2023-04-06T10:39:08.052Z,99782.75
2023-04-06T10:41:38.740Z,99775.13
2023-04-06T10:44:08.665Z,99774.19
2023-04-06T10:46:38.533Z,99780.31
2023-04-06T10:49:15.700Z,99770.00
2023-04-06T10:51:47.939Z,99765.28
2023-04-06T10:54:17.700Z,99765.09
2023-04-06T10:56:47.344Z,99761.28
2023-04-06T10:59:17.228Z,99776.97
2023-04-06T11:01:48.817Z,99767.97
2023-04-06T11:04:21.082Z,99771.81
2023-04-06T11:06:56.188Z,99772.38
2023-04-06T11:09:29.978Z,99763.81
2023-04-06T11:12:00.275Z,99758.25
2023-04-06T11:14:30.329Z,99754.50
2023-04-06T11:17:00.140Z,99757.56
2023-04-06T11:19:29.947Z,99746.81
2023-04-06T11:22:10.896Z,99759.03
2023-04-06T11:24:40.648Z,99758.56
2023-04-06T11:27:10.363Z,99754.78
2023-04-06T11:29:42.014Z,99751.31
2023-04-06T11:32:11.736Z,99754.00
2023-04-06T11:34:42.900Z,99747.56
2023-04-06T11:37:15.912Z,99752.94
2023-04-06T11:39:53.258Z,99749.16
2023-04-06T11:42:27.378Z,99747.59
2023-04-06T11:44:58.244Z,99747.19
2023-04-06T11:47:32.454Z,99744.94
2023-04-06T11:50:10.298Z,99743.31
2023-04-06T11:52:43.228Z,99733.31
2023-04-06T11:55:17.662Z,99740.38
2023-04-06T11:57:48.095Z,99736.53
2023-04-06T12:00:19.397Z,99736.38
2023-04-06T12:02:50.113Z,99741.53
2023-04-06T12:05:20.013Z,99738.94
2023-04-06T12:07:52.235Z,99722.72
2023-04-06T12:10:21.977Z,99719.03
2023-04-06T12:12:51.674Z,99720.13
2023-04-06T12:15:21.492Z,99723.28
2023-04-06T12:17:51.234Z,99720.78
2023-04-06T12:20:25.842Z,99717.59
2023-04-06T12:22:59.660Z,99712.44
2023-04-06T12:25:30.587Z,99716.41
2023-04-06T12:28:00.910Z,99698.34
2023-04-06T12:30:31.391Z,99706.34
2023-04-06T12:33:01.428Z,99696.66
2023-04-06T12:35:31.372Z,99694.44
2023-04-06T12:38:03.654Z,99691.31
2023-04-06T12:40:33.295Z,99683.56
2023-04-06T12:43:03.021Z,99691.13
2023-04-06T12:45:34.243Z,99699.88
2023-04-06T12:48:04.129Z,99697.69
2023-04-06T12:50:33.816Z,99695.75
2023-04-06T12:53:06.294Z,99694.34
2023-04-06T12:55:37.854Z,99691.47
2023-04-06T12:58:07.778Z,99689.19
2023-04-06T13:00:38.056Z,99684.31
2023-04-06T13:03:07.813Z,99685.56
2023-04-06T13:05:37.586Z,99682.75
2023-04-06T13:08:09.834Z,99680.69
2023-04-06T13:10:39.473Z,99679.22
2023-04-06T13:13:09.105Z,99671.31
2023-04-06T13:15:38.816Z,99669.38
2023-04-06T13:18:08.733Z,99677.84
2023-04-06T13:20:38.653Z,99659.72
2023-04-06T13:23:10.888Z,99662.50
2023-04-06T13:25:40.897Z,99669.66
2023-04-06T13:28:11.656Z,99667.19
2023-04-06T13:30:41.555Z,99659.50
2023-04-06T13:33:11.278Z,99665.72
2023-04-06T13:35:41.002Z,99644.91
2023-04-06T13:38:13.290Z,99651.53
2023-04-06T13:40:43.486Z,99656.97
2023-04-06T13:43:13.164Z,99650.69
2023-04-06T13:45:43.066Z,99646.59
2023-04-06T13:48:12.747Z,99645.44
2023-04-06T13:50:42.531Z,99642.75
2023-04-06T13:53:14.765Z,99639.41
2023-04-06T13:55:44.704Z,99639.38
2023-04-06T13:58:14.374Z,99636.94
2023-04-06T14:00:44.172Z,99635.34
2023-04-06T14:03:14.023Z,99629.22
2023-04-06T14:05:44.030Z,99631.75
2023-04-06T14:08:16.545Z,99639.44
2023-04-06T14:10:46.330Z,99636.09
2023-04-06T14:13:16.647Z,99633.69
2023-04-06T14:15:46.581Z,99631.75
2023-04-06T14:18:16.364Z,99624.03
2023-04-06T14:20:45.994Z,99629.72
2023-04-06T14:23:18.420Z,99621.25
2023-04-06T14:25:48.079Z,99623.88
2023-04-06T14:28:18.610Z,99620.56
2023-04-06T14:30:48.674Z,99625.03
2023-04-06T14:33:18.525Z,99620.38
2023-04-06T14:35:48.226Z,99616.28
2023-04-06T14:38:20.667Z,99619.75
2023-04-06T14:40:51.162Z,99611.94
2023-04-06T14:43:20.998Z,99604.78
2023-04-06T14:45:50.876Z,99611.88
2023-04-06T14:48:20.590Z,99607.28
2023-04-06T14:50:56.105Z,99611.94
2023-04-06T14:53:28.991Z,99611.94
2023-04-06T14:55:59.001Z,99604.25
2023-04-06T14:58:29.296Z,99604.75
2023-04-06T15:01:00.453Z,99597.06
2023-04-06T15:03:30.823Z,99600.09
2023-04-06T15:06:01.348Z,99597.84
2023-04-06T15:08:33.678Z,99596.47
2023-04-06T15:11:03.527Z,99595.38
2023-04-06T15:13:33.179Z,99603.44
2023-04-06T15:16:02.889Z,99599.69
2023-04-06T15:18:32.575Z,99601.38
2023-04-06T15:21:02.427Z,99601.91
2023-04-06T15:23:35.490Z,99602.63
2023-04-06T15:26:05.327Z,99599.28
2023-04-06T15:28:35.164Z,99599.81
2023-04-06T15:31:07.415Z,99603.16
2023-04-06T15:33:39.102Z,99592.34
2023-04-06T15:36:12.381Z,99597.09
2023-04-06T15:38:44.615Z,99593.81
2023-04-06T15:41:15.136Z,99596.03
2023-04-06T15:43:45.052Z,99589.94
2023-04-06T15:46:14.910Z,99580.63
2023-04-06T15:48:45.706Z,99588.03
2023-04-06T15:51:16.758Z,99587.25
2023-04-06T15:53:49.274Z,99594.31
2023-04-06T15:56:18.909Z,99588.31
2023-04-06T15:58:48.719Z,99589.38
2023-04-06T16:01:19.819Z,99590.53
2023-04-06T16:03:49.757Z,99597.66
2023-04-06T16:06:19.676Z,99592.75
2023-04-06T16:08:51.939Z,99595.72
2023-04-06T16:11:21.831Z,99594.31
2023-04-06T16:13:55.256Z,99592.16
2023-04-06T16:16:25.647Z,99592.06
2023-04-06T16:18:55.490Z,99598.22
2023-04-06T16:21:25.170Z,99592.16
2023-04-06T16:23:59.697Z,99585.56
2023-04-06T16:26:29.958Z,99589.28
2023-04-06T16:29:00.941Z,99583.34
2023-04-06T16:31:30.915Z,99587.25
2023-04-06T16:34:01.219Z,99590.53
2023-04-06T16:36:33.882Z,99583.34
2023-04-06T16:39:06.513Z,99582.25
2023-04-06T16:41:36.709Z,99582.53
2023-04-06T16:44:06.349Z,99580.91
2023-04-06T16:46:38.520Z,99592.19
2023-04-06T16:49:08.701Z,99586.63
2023-04-06T16:51:38.407Z,99586.91
2023-04-06T16:54:10.718Z,99591.88
2023-04-06T16:56:40.434Z,99589.75
2023-04-06T16:59:10.964Z,99596.47
2023-04-06T17:01:40.793Z,99591.81
2023-04-06T17:04:10.723Z,99588.00
2023-04-06T17:06:40.550Z,99592.03
2023-04-06T17:09:13.062Z,99587.88
2023-04-06T17:11:46.847Z,99592.06
2023-04-06T17:14:16.941Z,99593.47
2023-04-06T17:16:46.653Z,99591.41
2023-04-06T17:19:16.487Z,99584.88
2023-04-06T17:21:46.172Z,99587.84
2023-04-06T17:24:18.435Z,99582.53
2023-04-06T17:26:48.137Z,99591.53
2023-04-06T17:29:17.863Z,99592.56
2023-04-06T17:31:47.920Z,99595.81
2023-04-06T17:34:17.740Z,99594.09
2023-04-06T17:36:47.512Z,99599.09
2023-04-06T17:39:19.768Z,99596.06
2023-04-06T17:41:49.481Z,99591.28
2023-04-06T17:44:19.257Z,99599.69
2023-04-06T17:46:49.015Z,99601.66
2023-04-06T17:49:18.750Z,99600.34
2023-04-06T17:51:48.389Z,99603.31
2023-04-06T17:54:20.772Z,99609.94
2023-04-06T17:56:52.065Z,99603.78
2023-04-06T17:59:21.799Z,99598.53
2023-04-06T18:01:51.526Z,99609.03
2023-04-06T18:04:21.431Z,99605.13
2023-04-06T18:06:51.593Z,99611.28
2023-04-06T18:09:23.882Z,99613.88
2023-04-06T18:11:53.720Z,99616.75
2023-04-06T18:14:23.444Z,99624.41
2023-04-06T18:16:53.256Z,99623.75
2023-04-06T18:19:22.917Z,99620.41
2023-04-06T18:21:52.605Z,99623.66
2023-04-06T18:24:40.608Z,99639.22
2023-04-06T18:27:13.110Z,99636.06
2023-04-06T18:29:44.423Z,99638.13
2023-04-06T18:32:14.853Z,99636.44
2023-04-06T18:34:45.575Z,99643.66
2023-04-06T18:37:16.300Z,99651.53
2023-04-06T18:39:48.637Z,99647.09
2023-04-06T18:42:19.606Z,99648.28
2023-04-06T18:44:49.303Z,99658.25
2023-04-06T18:47:19.098Z,99656.75
2023-04-06T18:49:50.173Z,99659.16
2023-04-06T18:52:20.048Z,99660.88
2023-04-06T18:54:52.281Z,99661.53
2023-04-06T18:57:22.166Z,99659.63
2023-04-06T18:59:51.868Z,99658.97
2023-04-06T19:02:21.647Z,99664.09
2023-04-06T19:04:52.140Z,99662.34
2023-04-06T19:07:22.413Z,99674.16
2023-04-06T19:09:54.857Z,99668.91
2023-04-06T19:12:24.562Z,99677.72
2023-04-06T19:14:54.501Z,99675.66
2023-04-06T19:17:24.460Z,99677.63
2023-04-06T19:19:55.489Z,99675.66
2023-04-06T19:22:25.150Z,99674.72
2023-04-06T19:24:57.460Z,99678.91
2023-04-06T19:27:27.125Z,99676.88
2023-04-06T19:29:56.780Z,99673.88
2023-04-06T19:32:26.634Z,99689.63
2023-04-06T19:34:56.358Z,99680.91
2023-04-06T19:37:26.017Z,99689.16
2023-04-06T19:39:58.294Z,99688.84
2023-04-06T19:42:28.268Z,99695.16
2023-04-06T19:44:58.657Z,99690.59
2023-04-06T19:47:29.282Z,99688.03
2023-04-06T19:50:00.033Z,99682.63
2023-04-06T19:52:30.272Z,99687.75
2023-04-06T19:55:03.761Z,99685.59
2023-04-06T19:57:33.497Z,99682.28
2023-04-06T20:00:03.202Z,99678.75
2023-04-06T20:02:39.482Z,99678.94
2023-04-06T20:05:09.907Z,99685.81
2023-04-06T20:07:41.655Z,99685.69
2023-04-06T20:10:14.514Z,99685.47
2023-04-06T20:12:44.468Z,99688.19
2023-04-06T20:15:15.098Z,99686.75
2023-04-06T20:17:45.181Z,99690.50
2023-04-06T20:20:14.929Z,99687.19
2023-04-06T20:22:44.959Z,99685.06
2023-04-06T20:25:17.396Z,99691.16
2023-04-06T20:27:47.422Z,99690.19
2023-04-06T20:30:17.812Z,99685.25
2023-04-06T20:32:47.546Z,99690.22
2023-04-06T20:35:17.313Z,99686.06
2023-04-06T20:37:46.946Z,99684.34
2023-04-06T20:40:19.649Z,99687.41
2023-04-06T20:42:49.493Z,99682.63
2023-04-06T20:45:20.536Z,99686.56
2023-04-06T20:47:50.201Z,99691.75
2023-04-06T20:50:20.094Z,99697.28
2023-04-06T20:52:50.067Z,99683.34
2023-04-06T20:55:22.352Z,99680.88
2023-04-06T20:57:51.998Z,99684.31
2023-04-06T21:00:22.348Z,99683.47
2023-04-06T21:02:52.198Z,99688.53
2023-04-06T21:05:23.176Z,99692.47
2023-04-06T21:07:53.188Z,99687.41
2023-04-06T21:10:25.635Z,99692.16
2023-04-06T21:12:55.489Z,99682.06
2023-04-06T21:15:26.123Z,99687.88
2023-04-06T21:17:56.135Z,99682.13
2023-04-06T21:20:25.865Z,99686.72
2023-04-06T21:22:55.547Z,99687.53
2023-04-06T21:25:28.167Z,99694.16
2023-04-06T21:27:57.969Z,99683.72
2023-04-06T21:30:27.773Z,99673.50
2023-04-06T21:32:57.488Z,99685.50
2023-04-06T21:35:27.338Z,99678.38
2023-04-06T21:37:56.978Z,99683.31
2023-04-06T21:40:29.323Z,99680.16
2023-04-06T21:42:59.024Z,99673.16
2023-04-06T21:45:28.769Z,99676.50
2023-04-06T21:47:58.511Z,99678.22
2023-04-06T21:50:28.341Z,99678.16
2023-04-06T21:52:58.107Z,99675.56
2023-04-06T21:55:30.413Z,99679.97
2023-04-06T21:58:00.116Z,99677.44
2023-04-06T22:00:30.206Z,99675.28
2023-04-06T22:03:00.188Z,99688.25
2023-04-06T22:05:30.103Z,99682.00
2023-04-06T22:08:02.199Z,99681.19
2023-04-06T22:10:34.484Z,99674.09
2023-04-06T22:13:04.189Z,99679.50
2023-04-06T22:15:34.310Z,99679.94
2023-04-06T22:18:04.111Z,99680.78
2023-04-06T22:20:33.933Z,99676.59
2023-04-06T22:23:03.848Z,99675.97
2023-04-06T22:25:36.117Z,99673.91
2023-04-06T22:28:06.900Z,99668.09
2023-04-06T22:30:36.987Z,99672.69
2023-04-06T22:33:07.561Z,99673.72
2023-04-06T22:35:37.247Z,99675.38
2023-04-06T22:38:06.905Z,99670.75
2023-04-06T22:40:39.154Z,99681.16
2023-04-06T22:43:08.897Z,99672.63
2023-04-06T22:45:38.720Z,99669.94
2023-04-06T22:48:08.653Z,99673.28
2023-04-06T22:50:38.372Z,99671.16
2023-04-06T22:53:08.049Z,99677.13
2023-04-06T22:55:42.383Z,99674.50
2023-04-06T22:58:12.315Z,99670.44
2023-04-06T23:00:42.640Z,99671.94
2023-04-06T23:03:12.491Z,99667.38
2023-04-06T23:05:42.372Z,99676.31
2023-04-06T23:08:12.036Z,99672.25
2023-04-06T23:10:44.756Z,99662.94
2023-04-06T23:13:14.432Z,99659.63
2023-04-06T23:15:44.312Z,99668.00
2023-04-06T23:18:14.269Z,99674.00
2023-04-06T23:20:43.906Z,99671.00
2023-04-06T23:23:13.544Z,99666.03
2023-04-06T23:25:46.062Z,99668.94
2023-04-06T23:28:15.750Z,99671.00
2023-04-06T23:30:45.647Z,99665.50
2023-04-06T23:33:15.768Z,99663.06
2023-04-06T23:35:45.460Z,99660.91
2023-04-06T23:38:15.159Z,99656.97
2023-04-06T23:40:47.364Z,99663.91
2023-04-06T23:43:17.387Z,99662.16
2023-04-06T23:45:47.071Z,99654.09
2023-04-06T23:48:16.836Z,99662.09
2023-04-06T23:50:46.574Z,99658.63
2023-04-06T23:53:16.203Z,99655.41
2023-04-06T23:55:48.455Z,99660.22
2023-04-06T23:58:18.357Z,99660.22
